createdAt,value
2024-01-22T00:00:43.892Z,3.05
2024-01-22T00:03:12.326Z,3.00
2024-01-22T00:05:40.229Z,2.78
2024-01-22T00:08:08.974Z,2.85
2024-01-22T00:10:37.276Z,2.60
2024-01-22T00:13:06.976Z,3.60
2024-01-22T00:19:20.295Z,2.80
2024-01-22T00:21:47.998Z,2.38
2024-01-22T00:24:16.322Z,2.53
2024-01-22T00:26:44.037Z,2.65
2024-01-22T00:29:13.104Z,2.67
2024-01-22T00:31:41.303Z,2.45
2024-01-22T00:34:09.441Z,2.90
2024-01-22T00:36:37.273Z,2.47
2024-01-22T00:39:05.001Z,2.30
2024-01-22T00:41:32.714Z,2.47
2024-01-22T00:44:01.277Z,2.88
2024-01-22T00:46:31.065Z,2.05
2024-01-22T00:49:00.455Z,2.53
2024-01-22T00:51:28.132Z,2.53
2024-01-22T00:53:56.311Z,2.10
2024-01-22T00:56:24.612Z,2.27
2024-01-22T00:58:53.342Z,2.30
2024-01-22T01:01:21.037Z,2.20
2024-01-22T01:03:50.203Z,2.30
2024-01-22T01:06:18.410Z,2.20
2024-01-22T01:08:46.187Z,2.45
2024-01-22T01:11:14.312Z,2.40
2024-01-22T01:13:41.998Z,2.60
2024-01-22T01:16:09.797Z,2.17
2024-01-22T01:18:38.476Z,2.30
2024-01-22T01:21:07.596Z,2.42
2024-01-22T01:23:36.345Z,2.58
2024-01-22T01:26:04.047Z,2.30
2024-01-22T01:28:32.361Z,2.05
2024-01-22T01:31:00.042Z,1.95
2024-01-22T01:33:27.895Z,2.00
2024-01-22T01:35:56.365Z,2.58
2024-01-22T01:38:25.447Z,2.00
2024-01-22T01:40:53.352Z,1.90
2024-01-22T01:43:21.018Z,1.95
2024-01-22T01:45:49.375Z,1.95
2024-01-22T01:48:17.399Z,2.00
2024-01-22T01:50:46.432Z,2.00
2024-01-22T01:53:15.601Z,1.93
2024-01-22T01:55:46.395Z,1.70
2024-01-22T01:58:15.699Z,1.90
2024-01-22T02:00:46.491Z,1.60
2024-01-22T02:03:14.857Z,1.73
2024-01-22T02:05:43.442Z,2.15
2024-01-22T02:08:11.119Z,1.90
2024-01-22T02:10:39.417Z,1.95
2024-01-22T02:13:10.292Z,1.80
2024-01-22T02:15:39.386Z,2.03
2024-01-22T02:18:07.831Z,1.90
2024-01-22T02:26:28.401Z,1.90
2024-01-22T02:28:56.091Z,2.00
2024-01-22T02:31:24.534Z,2.10
2024-01-22T02:33:52.340Z,2.20
2024-01-22T02:36:20.492Z,2.05
2024-01-22T02:38:48.225Z,1.73
2024-01-22T02:41:16.442Z,1.90
2024-01-22T02:43:45.495Z,1.85
2024-01-22T02:46:13.433Z,1.50
2024-01-22T02:48:41.165Z,1.88
2024-01-22T02:51:09.934Z,1.90
2024-01-22T02:53:38.439Z,1.50
2024-01-22T02:56:07.024Z,1.60
2024-01-22T02:58:35.450Z,1.50
2024-01-22T03:01:04.682Z,1.60
2024-01-22T03:03:33.556Z,1.67
2024-01-22T03:06:01.418Z,1.88
2024-01-22T03:08:29.442Z,1.63
2024-01-22T03:10:58.095Z,1.60
2024-01-22T03:13:26.450Z,1.42
2024-01-22T03:15:54.149Z,1.70
2024-01-22T03:18:23.520Z,1.40
2024-01-22T03:20:51.460Z,1.40
2024-01-22T03:23:19.488Z,1.33
2024-01-22T03:25:47.374Z,1.20
2024-01-22T03:28:15.461Z,1.33
2024-01-22T03:30:43.165Z,1.23
2024-01-22T03:33:11.613Z,1.30
2024-01-22T03:35:40.812Z,1.20
2024-01-22T03:38:09.489Z,1.60
2024-01-22T03:40:37.134Z,1.42
2024-01-22T03:43:05.510Z,1.23
2024-01-22T03:45:33.189Z,1.30
2024-01-22T03:48:01.028Z,1.40
2024-01-22T03:50:29.593Z,1.13
2024-01-22T03:52:58.676Z,1.63
2024-01-22T03:55:27.520Z,1.80
2024-01-22T03:57:55.335Z,1.50
2024-01-22T04:00:23.598Z,1.70
2024-01-22T04:02:52.569Z,1.70
2024-01-22T04:05:20.478Z,1.48
2024-01-22T04:07:48.141Z,1.77
2024-01-22T04:10:17.545Z,1.73
2024-01-22T04:12:45.242Z,1.70
2024-01-22T04:15:13.591Z,1.73
2024-01-22T04:17:42.027Z,1.70
2024-01-22T04:20:12.534Z,1.90
2024-01-22T04:22:40.221Z,2.13
2024-01-22T04:25:08.582Z,1.53
2024-01-22T04:27:38.567Z,1.80
2024-01-22T04:30:19.621Z,2.00
2024-01-22T04:32:47.501Z,1.80
2024-01-22T04:35:15.556Z,1.90
2024-01-22T04:37:43.330Z,1.80
2024-01-22T04:40:12.583Z,1.77
2024-01-22T04:42:42.419Z,2.00
2024-01-22T04:45:11.590Z,2.08
2024-01-22T04:47:39.475Z,1.70
2024-01-22T04:50:08.579Z,1.70
2024-01-22T04:52:36.301Z,2.00
2024-01-22T04:55:10.250Z,1.70
2024-01-22T04:57:45.645Z,2.15
2024-01-22T05:00:14.265Z,1.80
2024-01-22T05:02:42.626Z,1.88
2024-01-22T05:05:10.664Z,1.75
2024-01-22T05:07:39.585Z,1.90
2024-01-22T05:10:10.722Z,2.20
2024-01-22T05:12:39.597Z,2.10
2024-01-22T05:15:10.810Z,2.25
2024-01-22T05:17:39.688Z,2.70
2024-01-22T05:20:08.854Z,1.80
2024-01-22T05:22:37.602Z,2.50
2024-01-22T05:25:05.946Z,2.25
2024-01-22T05:27:33.632Z,2.13
2024-01-22T05:30:01.704Z,2.22
2024-01-22T05:32:33.503Z,2.45
2024-01-22T05:35:01.734Z,2.40
2024-01-22T05:37:29.492Z,2.33
2024-01-22T05:39:59.934Z,2.10
2024-01-22T05:42:27.681Z,2.03
2024-01-22T05:44:55.694Z,2.20
2024-01-22T05:47:23.434Z,1.90
2024-01-22T05:49:52.658Z,2.23
2024-01-22T05:52:21.205Z,2.40
2024-01-22T05:54:48.846Z,2.10
2024-01-22T05:57:16.730Z,1.83
2024-01-22T05:59:44.465Z,2.10
2024-01-22T06:02:16.679Z,1.40
2024-01-22T06:04:44.350Z,1.83
2024-01-22T06:07:13.683Z,1.50
2024-01-22T06:09:41.622Z,0.00
2024-01-22T06:12:09.876Z,0.00
2024-01-22T06:14:37.680Z,0.00
2024-01-22T06:17:05.752Z,0.00
2024-01-22T06:19:33.700Z,0.00
2024-01-22T06:22:01.390Z,0.00
2024-01-22T06:24:37.684Z,0.20
2024-01-22T06:27:05.682Z,0.00
2024-01-22T06:29:36.919Z,0.00
2024-01-22T06:32:09.271Z,0.00
2024-01-22T06:34:37.894Z,0.00
2024-01-22T06:37:06.358Z,0.00
2024-01-22T06:39:34.690Z,0.00
2024-01-22T06:42:03.983Z,0.00
2024-01-22T06:44:32.720Z,0.00
2024-01-22T06:47:00.478Z,0.00
2024-01-22T06:49:28.906Z,0.00
2024-01-22T06:51:56.771Z,0.00
2024-01-22T06:54:24.764Z,0.00
2024-01-22T06:56:52.482Z,0.00
2024-01-22T06:59:21.525Z,0.00
2024-01-22T07:01:49.733Z,0.00
2024-01-22T07:04:17.553Z,0.00
2024-01-22T07:06:45.851Z,0.00
2024-01-22T07:09:13.642Z,0.00
2024-01-22T07:11:43.782Z,0.00
2024-01-22T07:14:11.469Z,0.00
2024-01-22T07:16:41.749Z,0.00
2024-01-22T07:19:09.602Z,0.00
2024-01-22T07:21:37.740Z,0.25
2024-01-22T07:24:05.951Z,0.00
2024-01-22T07:26:34.722Z,0.60
2024-01-22T07:29:02.976Z,0.00
2024-01-22T07:31:30.751Z,0.00
2024-01-22T07:33:59.994Z,0.00
2024-01-22T07:36:28.812Z,0.00
2024-01-22T07:38:58.868Z,0.10
2024-01-22T07:41:26.963Z,0.00
2024-01-22T07:43:54.804Z,0.00
2024-01-22T07:46:22.518Z,0.10
2024-01-22T07:48:51.920Z,0.00
2024-01-22T07:51:21.900Z,0.00
2024-01-22T07:53:49.855Z,0.00
2024-01-22T07:56:17.678Z,0.32
2024-01-22T07:58:47.789Z,0.00
2024-01-22T08:01:15.796Z,0.50
2024-01-22T08:03:43.867Z,0.00
2024-01-22T08:06:12.094Z,0.00
2024-01-22T08:08:46.562Z,0.00
2024-01-22T08:11:14.934Z,0.00
2024-01-22T08:13:42.796Z,0.00
2024-01-22T08:16:10.534Z,0.00
2024-01-22T08:18:39.040Z,0.00
2024-01-22T08:21:07.109Z,0.00
2024-01-22T08:23:34.818Z,0.10
2024-01-22T08:26:04.759Z,0.00
2024-01-22T08:28:32.522Z,0.00
2024-01-22T08:31:00.837Z,0.00
2024-01-22T08:33:28.669Z,0.00
2024-01-22T08:35:57.161Z,0.00
2024-01-22T08:38:25.850Z,0.13
2024-01-22T08:40:53.581Z,0.00
2024-01-22T08:43:23.848Z,0.40
2024-01-22T08:45:52.017Z,0.00
2024-01-22T08:48:31.995Z,0.00
2024-01-22T08:50:59.850Z,0.00
2024-01-22T08:53:27.575Z,0.00
2024-01-22T08:55:59.191Z,0.00
2024-01-22T08:58:28.655Z,0.00
2024-01-22T09:00:57.037Z,0.00
2024-01-22T09:03:26.317Z,0.00
2024-01-22T09:05:54.925Z,0.00
2024-01-22T09:08:22.665Z,0.00
2024-01-22T09:10:50.867Z,0.00
2024-01-22T09:13:18.541Z,0.30
2024-01-22T09:15:47.892Z,0.30
2024-01-22T09:18:16.603Z,0.00
2024-01-22T09:20:44.959Z,0.00
2024-01-22T09:23:13.642Z,0.00
2024-01-22T09:25:43.885Z,0.20
2024-01-22T09:28:12.052Z,0.00
2024-01-22T09:30:39.890Z,0.10
2024-01-22T09:33:11.031Z,0.40
2024-01-22T09:35:41.030Z,0.00
2024-01-22T09:38:08.886Z,0.00
2024-01-22T09:40:36.905Z,0.60
2024-01-22T09:43:05.779Z,0.00
2024-01-22T09:45:34.904Z,0.38
2024-01-22T09:48:03.802Z,0.00
2024-01-22T09:50:33.955Z,0.50
2024-01-22T09:53:03.332Z,0.00
2024-01-22T09:55:30.982Z,0.00
2024-01-22T09:58:01.897Z,0.00
2024-01-22T10:00:30.855Z,0.00
2024-01-22T10:03:01.617Z,0.00
2024-01-22T10:05:29.551Z,0.00
2024-01-22T10:07:58.954Z,0.20
2024-01-22T10:10:26.875Z,0.20
2024-01-22T10:13:06.306Z,0.00
2024-01-22T10:15:34.794Z,0.00
2024-01-22T10:18:14.227Z,0.00
2024-01-22T10:20:44.089Z,0.00
2024-01-22T10:23:13.991Z,0.00
2024-01-22T10:25:44.044Z,0.00
2024-01-22T10:28:14.047Z,0.00
2024-01-22T10:30:42.784Z,0.15
2024-01-22T10:33:13.074Z,0.00
2024-01-22T10:35:41.150Z,0.00
2024-01-22T10:38:10.974Z,1.80
2024-01-22T10:40:40.840Z,0.00
2024-01-22T10:43:28.577Z,0.00
2024-01-22T10:45:58.363Z,0.00
2024-01-22T10:48:38.609Z,0.00
2024-01-22T10:51:12.617Z,0.00
2024-01-22T10:53:42.641Z,0.50
2024-01-22T10:56:18.932Z,0.00
2024-01-22T10:58:49.726Z,0.00
2024-01-22T11:01:21.046Z,0.00
2024-01-22T11:03:51.901Z,0.00
2024-01-22T11:06:23.024Z,0.00
2024-01-22T11:08:52.100Z,0.00
2024-01-22T11:11:25.405Z,0.00
2024-01-22T11:13:57.034Z,0.00
2024-01-22T11:16:25.138Z,0.00
2024-01-22T11:19:01.342Z,0.00
2024-01-22T11:21:34.489Z,0.00
2024-01-22T11:24:14.276Z,0.40
2024-01-22T11:26:47.952Z,0.00
2024-01-22T11:29:17.543Z,0.00
2024-01-22T11:31:47.981Z,0.00
2024-01-22T11:34:48.421Z,0.00
2024-01-22T11:37:34.767Z,0.00
2024-01-22T11:40:05.054Z,0.00
2024-01-22T11:42:34.896Z,0.00
2024-01-22T11:45:12.110Z,0.00
2024-01-22T11:47:40.737Z,0.60
2024-01-22T11:50:09.743Z,0.90
2024-01-22T11:52:39.124Z,0.00
2024-01-22T11:55:09.148Z,0.20
2024-01-22T11:57:53.822Z,0.07
2024-01-22T12:00:24.086Z,0.00
2024-01-22T12:02:53.299Z,0.00
2024-01-22T12:05:21.743Z,0.35
2024-01-22T12:07:51.054Z,0.00
2024-01-22T12:10:22.735Z,1.80
2024-01-22T12:12:54.070Z,0.00
2024-01-22T12:15:22.828Z,0.10
2024-01-22T12:17:55.293Z,0.00
2024-01-22T12:20:24.337Z,0.00
2024-01-22T12:22:59.146Z,0.10
2024-01-22T12:25:35.752Z,0.30
2024-01-22T12:28:12.883Z,0.10
2024-01-22T12:30:43.652Z,0.00
2024-01-22T12:33:23.103Z,1.25
2024-01-22T12:35:53.187Z,0.10
2024-01-22T12:38:24.820Z,0.00
2024-01-22T12:41:01.429Z,0.00
2024-01-22T12:43:32.101Z,0.30
2024-01-22T12:46:07.359Z,0.80
2024-01-22T12:48:36.346Z,0.20
2024-01-22T12:51:11.841Z,0.00
2024-01-22T12:53:42.169Z,0.00
2024-01-22T12:56:10.206Z,0.30
2024-01-22T12:58:40.338Z,0.22
2024-01-22T13:01:08.753Z,0.00
2024-01-22T13:03:37.251Z,0.00
2024-01-22T13:06:05.196Z,0.00
2024-01-22T13:08:34.925Z,0.60
2024-01-22T13:11:04.154Z,0.00
2024-01-22T13:13:32.150Z,0.00
2024-01-22T13:16:13.953Z,0.13
2024-01-22T13:18:47.583Z,0.00
2024-01-22T13:21:17.680Z,1.43
2024-01-22T13:23:48.097Z,0.50
2024-01-22T13:26:36.147Z,0.00
2024-01-22T13:29:27.718Z,0.80
2024-01-22T13:31:58.402Z,0.70
2024-01-22T13:34:28.482Z,0.20
2024-01-22T13:36:56.372Z,0.00
2024-01-22T13:39:24.217Z,0.60
2024-01-22T13:41:52.035Z,0.40
2024-01-22T13:44:20.185Z,0.00
2024-01-22T13:46:47.966Z,0.95
2024-01-22T13:49:17.353Z,0.00
2024-01-22T13:51:45.211Z,0.50
2024-01-22T13:54:13.043Z,0.30
2024-01-22T13:56:42.235Z,0.00
2024-01-22T13:59:10.904Z,0.00
2024-01-22T14:01:39.275Z,0.00
2024-01-22T14:04:07.039Z,0.90
2024-01-22T14:06:36.336Z,0.00
2024-01-22T14:09:04.603Z,0.40
2024-01-22T14:11:33.193Z,0.30
2024-01-22T14:14:01.231Z,0.60
2024-01-22T14:16:29.230Z,0.00
2024-01-22T14:18:57.137Z,0.00
2024-01-22T14:21:25.730Z,0.00
2024-01-22T14:23:56.223Z,0.20
2024-01-22T14:26:24.040Z,2.10
2024-01-22T14:28:51.766Z,0.03
2024-01-22T14:31:20.221Z,0.20
2024-01-22T14:33:49.481Z,0.00
2024-01-22T14:36:18.287Z,5.93
2024-01-22T14:38:47.499Z,3.95
2024-01-22T14:41:18.268Z,5.25
2024-01-22T14:43:45.998Z,4.13
2024-01-22T14:46:14.261Z,3.05
2024-01-22T14:48:42.214Z,3.47
2024-01-22T14:51:10.271Z,4.95
2024-01-22T14:53:38.230Z,5.10
2024-01-22T14:56:09.245Z,4.85
2024-01-22T14:58:39.957Z,5.25
2024-01-22T15:01:07.650Z,5.68
2024-01-22T15:03:36.444Z,4.20
2024-01-22T15:06:04.436Z,4.93
2024-01-22T15:08:51.274Z,4.03
2024-01-22T15:11:18.936Z,3.88
2024-01-22T15:13:48.280Z,3.93
2024-01-22T15:16:16.476Z,4.10
2024-01-22T15:18:44.509Z,3.95
2024-01-22T15:21:12.835Z,4.32
2024-01-22T15:23:41.279Z,3.60
2024-01-22T15:26:09.244Z,5.25
2024-01-22T15:28:39.929Z,4.88
2024-01-22T15:31:11.323Z,5.07
2024-01-22T15:33:39.185Z,5.07
2024-01-22T15:36:09.358Z,4.25
2024-01-22T15:38:37.072Z,4.40
2024-01-22T15:41:07.287Z,6.40
2024-01-22T15:43:35.035Z,4.20
2024-01-22T15:46:02.835Z,4.95
2024-01-22T15:48:32.376Z,5.07
2024-01-22T15:51:02.259Z,4.20
2024-01-22T15:53:30.317Z,3.60
2024-01-22T15:55:58.059Z,5.00
2024-01-22T15:58:26.359Z,4.88
2024-01-22T16:00:54.047Z,4.57
2024-01-22T16:03:21.735Z,3.60
2024-01-22T16:05:51.352Z,4.93
2024-01-22T16:08:20.769Z,3.30
2024-01-22T16:10:49.366Z,4.50
2024-01-22T16:13:19.891Z,5.15
2024-01-22T16:15:48.327Z,5.15
2024-01-22T16:18:16.404Z,5.18
2024-01-22T16:20:45.363Z,4.80
2024-01-22T16:23:14.676Z,5.07
2024-01-22T16:25:43.362Z,5.07
2024-01-22T16:28:11.401Z,4.78
2024-01-22T16:30:43.407Z,4.22
2024-01-22T16:33:14.325Z,4.63
2024-01-22T16:35:42.357Z,4.63
2024-01-22T16:38:10.268Z,3.35
2024-01-22T16:40:39.379Z,4.67
2024-01-22T16:43:07.100Z,4.23
2024-01-22T16:45:35.417Z,4.43
2024-01-22T16:48:03.194Z,3.22
2024-01-22T16:50:31.389Z,4.60
2024-01-22T16:52:59.172Z,3.80
2024-01-22T16:55:27.375Z,4.35
2024-01-22T16:57:56.422Z,5.03
2024-01-22T17:00:24.275Z,5.00
2024-01-22T17:02:52.401Z,4.35
2024-01-22T17:05:20.215Z,5.38
2024-01-22T17:07:49.415Z,4.60
2024-01-22T17:10:17.713Z,5.07
2024-01-22T17:12:45.895Z,4.70
2024-01-22T17:15:16.548Z,4.75
2024-01-22T17:17:44.340Z,5.15
2024-01-22T17:20:13.411Z,5.30
2024-01-22T17:22:41.564Z,4.25
2024-01-22T17:25:11.737Z,4.15
2024-01-22T17:27:40.074Z,3.60
2024-01-22T17:30:09.056Z,5.05
2024-01-22T17:32:38.770Z,4.70
2024-01-22T17:35:08.110Z,4.10
2024-01-22T17:37:37.706Z,4.10
2024-01-22T17:40:06.033Z,3.85
2024-01-22T17:42:36.454Z,4.35
2024-01-22T17:45:04.454Z,3.78
2024-01-22T17:47:32.558Z,3.80
2024-01-22T17:50:01.986Z,3.72
2024-01-22T17:52:30.434Z,4.78
2024-01-22T17:54:58.070Z,4.70
2024-01-22T17:57:26.546Z,4.97
2024-01-22T17:59:54.683Z,4.75
2024-01-22T18:02:22.492Z,4.88
2024-01-22T18:04:50.140Z,3.30
2024-01-22T18:07:19.500Z,4.70
2024-01-22T18:09:47.309Z,5.00
2024-01-22T18:12:15.000Z,3.80
2024-01-22T18:14:43.922Z,4.95
2024-01-22T18:17:12.145Z,4.80
2024-01-22T18:19:39.907Z,5.15
2024-01-22T18:22:11.491Z,3.95
2024-01-22T18:24:40.568Z,4.82
2024-01-22T18:27:08.436Z,3.72
2024-01-22T18:29:37.488Z,4.80
2024-01-22T18:32:05.825Z,4.53
2024-01-22T18:34:33.590Z,5.17
2024-01-22T18:37:03.515Z,4.05
2024-01-22T18:39:31.193Z,5.18
2024-01-22T18:42:00.528Z,4.90
2024-01-22T18:44:28.181Z,5.15
2024-01-22T18:46:56.505Z,4.57
2024-01-22T18:49:24.296Z,4.13
2024-01-22T18:51:52.520Z,4.70
2024-01-22T18:54:23.224Z,5.13
2024-01-22T18:56:51.645Z,4.78
2024-01-22T18:59:20.783Z,5.75
2024-01-22T19:01:49.534Z,3.88
2024-01-22T19:04:17.217Z,3.88
2024-01-22T19:06:45.529Z,5.43
2024-01-22T19:09:14.783Z,5.05
2024-01-22T19:11:43.514Z,4.30
2024-01-22T19:14:11.717Z,5.25
2024-01-22T19:16:41.682Z,4.72
2024-01-22T19:19:09.551Z,4.40
2024-01-22T19:21:37.673Z,4.65
2024-01-22T19:24:06.461Z,4.43
2024-01-22T19:26:35.639Z,4.82
2024-01-22T19:29:03.834Z,5.00
2024-01-22T19:31:34.553Z,4.68
2024-01-22T19:36:50.669Z,5.78
2024-01-22T19:39:18.980Z,5.40
2024-01-22T19:41:47.641Z,5.40
2024-01-22T19:44:15.575Z,4.20
2024-01-22T19:46:44.630Z,4.82
2024-01-22T19:49:13.786Z,4.70
2024-01-22T19:51:41.515Z,4.90
2024-01-22T19:54:09.619Z,5.38
2024-01-22T19:56:43.365Z,5.47
2024-01-22T19:59:11.175Z,4.80
2024-01-22T20:01:39.605Z,6.43
2024-01-22T20:04:07.470Z,5.70
2024-01-22T20:06:36.701Z,3.80
2024-01-22T20:09:04.673Z,5.30
2024-01-22T20:11:33.623Z,4.65
2024-01-22T20:14:02.630Z,4.60
2024-01-22T20:16:31.474Z,5.20
2024-01-22T20:18:59.413Z,5.00
2024-01-22T20:21:27.623Z,5.00
2024-01-22T20:24:04.501Z,4.43
2024-01-22T20:26:36.304Z,5.43
2024-01-22T20:29:04.640Z,5.75
2024-01-22T20:31:32.323Z,6.17
2024-01-22T20:34:00.823Z,4.20
2024-01-22T20:36:29.053Z,5.65
2024-01-22T20:38:58.684Z,4.43
2024-01-22T20:41:26.505Z,4.93
2024-01-22T20:43:54.667Z,5.30
2024-01-22T20:46:22.301Z,6.00
2024-01-22T20:48:50.847Z,5.53
2024-01-22T20:51:18.808Z,5.60
2024-01-22T20:53:46.652Z,4.60
2024-01-22T20:56:18.372Z,4.60
2024-01-22T20:58:48.829Z,5.85
2024-01-22T21:01:17.834Z,5.53
2024-01-22T21:03:45.963Z,5.15
2024-01-22T21:06:15.937Z,4.47
2024-01-22T21:08:43.775Z,5.00
2024-01-22T21:11:13.680Z,5.40
2024-01-22T21:13:42.890Z,5.15
2024-01-22T21:16:11.694Z,5.70
2024-01-22T21:18:52.709Z,6.22
2024-01-22T21:21:23.757Z,5.78
2024-01-22T21:23:54.288Z,4.80
2024-01-22T21:26:23.047Z,5.70
2024-01-22T21:28:52.683Z,4.00
2024-01-22T21:31:20.787Z,5.45
2024-01-22T21:33:50.149Z,5.30
2024-01-22T21:36:18.000Z,5.60
2024-01-22T21:38:45.693Z,5.53
2024-01-22T21:41:14.684Z,3.93
2024-01-22T21:43:42.353Z,4.55
2024-01-22T21:46:11.705Z,6.03
2024-01-22T21:48:39.447Z,4.30
2024-01-22T21:51:07.243Z,3.20
2024-01-22T21:53:58.719Z,5.15
2024-01-22T21:56:28.575Z,6.25
2024-01-22T21:58:56.745Z,5.82
2024-01-22T22:04:19.303Z,3.17
2024-01-22T22:06:46.839Z,5.30
2024-01-22T22:09:15.084Z,4.85
2024-01-22T22:11:45.005Z,5.20
2024-01-22T22:14:13.376Z,5.57
2024-01-22T22:16:42.751Z,5.80
2024-01-22T22:19:10.849Z,5.43
2024-01-22T22:21:48.925Z,4.82
2024-01-22T22:24:16.794Z,5.75
2024-01-22T22:26:45.231Z,5.30
2024-01-22T22:29:12.905Z,5.20
2024-01-22T22:31:42.828Z,5.93
2024-01-22T22:34:10.830Z,4.82
2024-01-22T22:36:44.805Z,4.07
2024-01-22T22:39:12.798Z,5.82
2024-01-22T22:41:41.951Z,5.23
2024-01-22T22:44:09.771Z,3.87
2024-01-22T22:46:42.827Z,3.75
2024-01-22T22:49:11.028Z,2.67
2024-01-22T22:51:42.698Z,3.92
2024-01-22T22:54:10.836Z,2.57
2024-01-22T22:56:38.577Z,0.00
2024-01-22T22:59:07.826Z,0.00
2024-01-22T23:01:35.596Z,0.00
2024-01-22T23:04:05.321Z,0.00
2024-01-22T23:06:33.222Z,0.00
2024-01-22T23:09:02.080Z,0.00
2024-01-22T23:11:29.776Z,0.00
2024-01-22T23:13:57.710Z,0.90
2024-01-22T23:16:25.826Z,0.00
2024-01-22T23:18:54.079Z,0.00
2024-01-22T23:21:23.623Z,0.00
2024-01-22T23:23:51.871Z,1.98
2024-01-22T23:26:19.596Z,2.60
2024-01-22T23:28:47.837Z,1.88
2024-01-22T23:31:15.515Z,2.35
2024-01-22T23:33:43.925Z,2.43
2024-01-22T23:36:14.986Z,2.40
2024-01-22T23:38:44.834Z,2.63
2024-01-22T23:41:12.515Z,3.13
2024-01-22T23:43:40.835Z,3.38
2024-01-22T23:46:29.933Z,2.90
2024-01-22T23:48:57.926Z,3.55
2024-01-22T23:51:25.761Z,3.70
2024-01-22T23:53:55.023Z,4.00
2024-01-22T23:56:22.873Z,2.90
2024-01-22T23:58:51.351Z,3.85
